Dades meteomassalio
Diari Summary for Marc 12, 2017 Units:  English    Metric   Both
« Previous Day
Next Day »
Diari Semanal Mensual Anual Personalitzat
  Maxima: Minima: Mijana:
Temperatura: TemperatureC °F 8.8 °F 10.9 °F
Rosada: DewpointC °F 4.2 °F 5.2 °F
Humitat: Humidity % 47 % 67 %
Velocitat del vent: WindSpeedKMH mph 16.1 mph 32.5 mph
Racha vent: WindSpeedGustKMH mph - -
Vent:- - WNW
Pressio: PressurehPa in 1013.4 in -
Pluja: 0.3 in    
Historical Graphs
 
 
Tabular Data for Marc 12, 2017
Time Temperature Dew Point Pressure Wind Wind Speed Wind Gust Humidity Rainfall Rate (Hourly) solar Conditions
TemperatureC °F DewpointC °F PressurehPa in Calm     Humidity % HourlyPrecipMM in SolarRadiationWatts/m^2 W/m2 Conditions
15:33 18.8 °F 7.9 °F 1013.8 in NNW 43.4 mph 43.4 mph 49 % 0.0 in 605.0 W/m2 CLR
15:38 18.9 °F 7.6 °F 1013.8 in NNE 37.0 mph 37.0 mph 48 % 0.0 in 564.0 W/m2 CLR
15:43 18.7 °F 7.2 °F 1013.4 in NW 48.1 mph 48.1 mph 47 % 0.0 in 564.0 W/m2 CLR
15:49 18.6 °F 7.4 °F 1013.4 in NW 29.6 mph 29.6 mph 48 % 0.0 in 626.0 W/m2 CLR
15:54 18.6 °F 7.4 °F 1013.4 in NW 40.2 mph 40.2 mph 48 % 0.0 in 278.0 W/m2 CLR
16:00 18.4 °F 7.2 °F 1013.4 in NNW 42.6 mph 42.6 mph 48 % 0.0 in 696.0 W/m2 CLR
16:06 18.2 °F 7.3 °F 1013.4 in NNW 33.3 mph 33.3 mph 49 % 0.0 in 696.0 W/m2 CLR
18:30 12.3 °F 5.9 °F 1015.1 in WNW 42.6 mph 42.6 mph 65 % 0.0 in 35.0 W/m2 BKN
18:35 12.2 °F 6.0 °F 1015.1 in NW 40.7 mph 40.7 mph 66 % 0.0 in 25.0 W/m2 BKN
18:40 11.9 °F 5.7 °F 1015.1 in WNW 40.7 mph 40.7 mph 66 % 0.0 in 14.0 W/m2 BKN
18:45 11.7 °F 5.7 °F 1015.1 in NW 51.8 mph 51.8 mph 67 % 0.0 in 9.0 W/m2 BKN
18:48 11.6 °F 5.8 °F 1015.1 in NW 48.1 mph 48.1 mph 68 % 0.0 in 7.0 W/m2 BKN
18:53 11.4 °F 5.7 °F 1015.1 in NW 51.8 mph 51.8 mph 68 % 0.0 in 5.0 W/m2 OVC
18:58 11.3 °F 5.8 °F 1015.1 in WNW 48.1 mph 48.1 mph 69 % 0.0 in 0.0 W/m2 OVC
19:03 11.2 °F 5.7 °F 1015.5 in WNW 33.3 mph 33.3 mph 69 % 0.0 in 0.0 W/m2 OVC
19:08 11.2 °F 5.7 °F 1015.5 in NW 31.5 mph 31.5 mph 69 % 0.0 in 0.0 W/m2 OVC
19:13 11.1 °F 5.6 °F 1015.8 in WNW 27.8 mph 27.8 mph 69 % 0.0 in 0.0 W/m2 CLR
19:18 11.1 °F 5.8 °F 1016.1 in WNW 25.7 mph 25.7 mph 70 % 0.0 in 0.0 W/m2 CLR
19:23 11.0 °F 5.7 °F 1016.1 in NW 33.8 mph 33.8 mph 70 % 0.0 in 0.0 W/m2 CLR
19:28 10.9 °F 5.9 °F 1016.1 in WNW 25.9 mph 25.9 mph 71 % 0.0 in 0.0 W/m2 CLR
19:33 10.9 °F 5.9 °F 1016.5 in West 18.5 mph 18.5 mph 71 % 0.0 in 0.0 W/m2 CLR
19:38 10.9 °F 5.8 °F 1016.5 in WNW 24.1 mph 24.1 mph 71 % 0.0 in 0.0 W/m2 CLR
19:43 10.9 °F 5.8 °F 1016.5 in NW 22.2 mph 22.2 mph 71 % 0.0 in 0.0 W/m2 CLR
19:48 10.8 °F 5.8 °F 1016.5 in West 27.8 mph 27.8 mph 71 % 0.0 in 0.0 W/m2 CLR
19:53 10.8 °F 5.8 °F 1016.8 in WNW 27.8 mph 27.8 mph 71 % 0.0 in 0.0 W/m2 CLR
19:58 10.8 °F 5.7 °F 1016.8 in West 25.7 mph 25.7 mph 71 % 0.0 in 0.0 W/m2 CLR
20:03 10.7 °F 5.7 °F 1016.8 in NW 25.9 mph 25.9 mph 71 % 0.0 in 0.0 W/m2 CLR
20:08 10.7 °F 5.8 °F 1016.5 in West 22.2 mph 22.2 mph 72 % 0.0 in 0.0 W/m2 CLR
20:13 10.6 °F 5.5 °F 1016.5 in WNW 40.2 mph 40.2 mph 71 % 0.0 in 0.0 W/m2 CLR
20:18 10.4 °F 5.4 °F 1016.5 in NW 38.9 mph 38.9 mph 71 % 0.0 in 0.0 W/m2 CLR
20:23 10.3 °F 5.3 °F 1016.5 in West 38.9 mph 38.9 mph 71 % 0.0 in 0.0 W/m2 CLR
20:28 10.3 °F 5.2 °F 1016.5 in WNW 37.0 mph 37.0 mph 71 % 0.0 in 0.0 W/m2 CLR
20:33 10.2 °F 5.2 °F 1016.5 in NW 31.5 mph 31.5 mph 71 % 0.0 in 0.0 W/m2 CLR
20:38 10.2 °F 5.2 °F 1016.5 in NW 33.3 mph 33.3 mph 71 % 0.0 in 0.0 W/m2 CLR
20:43 10.2 °F 5.2 °F 1016.5 in WNW 35.2 mph 35.2 mph 71 % 0.0 in 0.0 W/m2 CLR
20:48 10.2 °F 4.9 °F 1016.5 in NW 43.4 mph 43.4 mph 70 % 0.0 in 0.0 W/m2 CLR
20:53 10.2 °F 4.9 °F 1016.1 in WNW 42.6 mph 42.6 mph 70 % 0.0 in 0.0 W/m2 CLR
20:58 10.1 °F 4.9 °F 1016.1 in WNW 30.6 mph 30.6 mph 70 % 0.0 in 0.0 W/m2 CLR
21:03 10.1 °F 4.9 °F 1016.1 in WNW 33.3 mph 33.3 mph 70 % 0.0 in 0.0 W/m2 CLR
21:08 10.1 °F 4.8 °F 1016.5 in WNW 29.6 mph 29.6 mph 70 % 0.0 in 0.0 W/m2 CLR
21:13 10.1 °F 4.8 °F 1016.5 in WNW 46.3 mph 46.3 mph 70 % 0.0 in 0.0 W/m2 CLR
21:18 10.1 °F 4.8 °F 1016.5 in WNW 31.5 mph 31.5 mph 70 % 0.0 in 0.0 W/m2 CLR
21:23 10.1 °F 4.6 °F 1016.8 in WNW 29.6 mph 29.6 mph 69 % 0.0 in 0.0 W/m2 CLR
21:28 10.1 °F 4.6 °F 1016.8 in WNW 22.5 mph 22.5 mph 69 % 0.0 in 0.0 W/m2 CLR
21:33 10.1 °F 4.6 °F 1016.8 in West 18.5 mph 18.5 mph 69 % 0.0 in 0.0 W/m2 CLR
21:38 10.0 °F 4.6 °F 1016.8 in West 17.7 mph 17.7 mph 69 % 0.0 in 0.0 W/m2 CLR
21:43 10.0 °F 4.6 °F 1017.2 in SW 16.7 mph 16.7 mph 69 % 0.0 in 0.0 W/m2 CLR
21:48 10.0 °F 4.6 °F 1017.2 in WNW 16.1 mph 16.1 mph 69 % 0.0 in 0.0 W/m2 CLR
21:53 10.0 °F 4.6 °F 1017.2 in WNW 22.2 mph 22.2 mph 69 % 0.0 in 0.0 W/m2 CLR
21:58 10.0 °F 4.6 °F 1017.2 in WNW 31.5 mph 31.5 mph 69 % 0.0 in 0.0 W/m2 CLR
22:03 10.0 °F 4.6 °F 1017.2 in WNW 25.9 mph 25.9 mph 69 % 0.0 in 0.0 W/m2 CLR
22:08 10.0 °F 4.6 °F 1016.8 in NW 31.5 mph 31.5 mph 69 % 0.0 in 0.0 W/m2 CLR
22:13 9.9 °F 4.5 °F 1016.8 in WNW 35.2 mph 35.2 mph 69 % 0.0 in 0.0 W/m2 CLR
22:18 9.9 °F 4.5 °F 1017.2 in NW 29.6 mph 29.6 mph 69 % 0.0 in 0.0 W/m2 CLR
22:23 9.9 °F 4.4 °F 1017.2 in WNW 30.6 mph 30.6 mph 69 % 0.0 in 0.0 W/m2 CLR
22:28 9.9 °F 4.4 °F 1016.8 in NNW 37.0 mph 37.0 mph 69 % 0.0 in 0.0 W/m2 CLR
22:33 9.8 °F 4.6 °F 1016.8 in NW 31.5 mph 31.5 mph 70 % 0.0 in 0.0 W/m2 CLR
22:38 9.8 °F 4.3 °F 1017.2 in NW 33.3 mph 33.3 mph 69 % 0.0 in 0.0 W/m2 CLR
22:43 9.8 °F 4.3 °F 1017.2 in NW 35.2 mph 35.2 mph 69 % 0.0 in 0.0 W/m2 CLR
22:48 9.7 °F 4.3 °F 1017.2 in WNW 35.2 mph 35.2 mph 69 % 0.0 in 0.0 W/m2 CLR
22:53 9.7 °F 4.3 °F 1017.2 in WNW 33.3 mph 33.3 mph 69 % 0.0 in 0.0 W/m2 CLR
22:54 9.7 °F 4.3 °F 1017.5 in West 29.6 mph 29.6 mph 69 % 0.0 in 0.0 W/m2 CLR
22:59 9.7 °F 4.3 °F 1017.5 in WNW 24.1 mph 24.1 mph 69 % 0.0 in 0.0 W/m2 CLR
23:04 9.7 °F 4.3 °F 1017.5 in West 29.6 mph 29.6 mph 69 % 0.0 in 0.0 W/m2 CLR
23:09 9.6 °F 4.2 °F 1017.2 in WNW 38.9 mph 38.9 mph 69 % 0.0 in 0.0 W/m2 CLR
23:14 9.6 °F 4.4 °F 1017.2 in WNW 31.5 mph 31.5 mph 70 % 0.0 in 0.0 W/m2 CLR
23:19 9.6 °F 4.3 °F 1017.5 in WNW 40.7 mph 40.7 mph 70 % 0.0 in 0.0 W/m2 CLR
23:24 9.5 °F 4.5 °F 1017.2 in West 27.8 mph 27.8 mph 71 % 0.0 in 0.0 W/m2 CLR
23:29 9.3 °F 4.7 °F 1017.2 in WNW 44.4 mph 44.4 mph 73 % 0.0 in 0.0 W/m2 CLR
23:34 9.1 °F 4.9 °F 1017.5 in West 27.4 mph 27.4 mph 75 % 0.0 in 0.0 W/m2 CLR
23:39 9.0 °F 4.8 °F 1017.5 in WNW 35.2 mph 35.2 mph 75 % 0.0 in 0.0 W/m2 CLR
23:44 8.9 °F 4.9 °F 1017.5 in WNW 33.3 mph 33.3 mph 76 % 0.0 in 0.0 W/m2 CLR
23:49 8.8 °F 4.8 °F 1017.2 in WNW 31.5 mph 31.5 mph 76 % 0.0 in 0.0 W/m2 CLR
23:54 8.8 °F 4.9 °F 1017.2 in West 29.6 mph 29.6 mph 77 % 0.3 in 0.0 W/m2 RA
23:59 8.8 °F 4.9 °F 1017.2 in WNW 31.5 mph 31.5 mph 77 % 0.3 in 0.0 W/m2 CLR
Lo Temps de Massalio
Compliments of Weather Underground - 512 kb